Time;durP1;ratioP1;P1;durP2;ratioP2;P2;SDS_P1;SDS_P2;PMS_P1;PMS_P2;Temp;Humidity;BMP_temperature;BMP_pressure;BME280_temperature;BME280_humidity;BME280_pressure;Samples;Min_cycle;Max_cycle;Signal;HPM_P1;HPM_P2
2023/07/17 00:01:43;;;;;;;2.67;1.80;;;24.00;70.40;;;;;;4951663;29;20209;-72
2023/07/17 00:04:09;;;;;;;1.95;1.75;;;24.00;70.40;;;;;;4969959;28;20217;-72
2023/07/17 00:06:35;;;;;;;2.00;1.90;;;24.00;70.40;;;;;;4970415;28;20203;-72
2023/07/17 00:09:01;;;;;;;1.58;1.48;;;24.00;70.40;;;;;;4954749;28;20214;-72
2023/07/17 00:11:26;;;;;;;2.20;2.00;;;24.00;70.40;;;;;;4955331;28;20329;-72
2023/07/17 00:13:52;;;;;;;1.85;1.70;;;24.00;70.40;;;;;;4954953;28;20220;-72
2023/07/17 00:16:20;;;;;;;2.20;2.00;;;24.00;70.40;;;;;;4970397;28;20265;-72
2023/07/17 00:18:46;;;;;;;1.63;1.52;;;24.00;70.40;;;;;;4970597;28;20185;-72
2023/07/17 00:21:12;;;;;;;1.95;1.60;;;24.00;70.40;;;;;;4955077;28;20221;-72
2023/07/17 00:23:37;;;;;;;2.10;1.90;;;24.00;71.20;;;;;;4971178;28;20217;-72
2023/07/17 00:26:04;;;;;;;1.77;1.67;;;24.00;70.40;;;;;;4969864;28;20193;-72
2023/07/17 00:28:31;;;;;;;2.17;2.03;;;24.00;70.40;;;;;;4953404;28;20229;-72
2023/07/17 00:30:59;;;;;;;1.90;1.80;;;24.00;70.40;;;;;;4970859;28;20224;-72
2023/07/17 00:33:24;;;;;;;1.85;1.67;;;24.00;70.40;;;;;;4954994;28;20216;-72
2023/07/17 00:35:50;;;;;;;2.10;1.90;;;24.00;70.40;;;;;;4954017;28;20194;-72
2023/07/17 00:38:16;;;;;;;1.98;1.58;;;24.00;70.40;;;;;;4971242;28;20190;-72
2023/07/17 00:40:42;;;;;;;1.88;1.77;;;24.00;70.40;;;;;;4974331;28;20220;-72
2023/07/17 00:43:11;;;;;;;1.98;1.80;;;24.00;70.40;;;;;;4958444;28;20223;-72
2023/07/17 00:45:41;;;;;;;1.63;1.52;;;24.00;70.40;;;;;;4957743;28;20189;-72
2023/07/17 00:48:07;;;;;;;2.08;1.80;;;23.90;70.20;;;;;;4974682;28;20241;-72
2023/07/17 00:50:34;;;;;;;1.85;1.75;;;24.00;70.30;;;;;;4958525;28;20185;-72
2023/07/17 00:53:03;;;;;;;1.90;1.80;;;23.90;70.20;;;;;;4974469;28;20219;-72
2023/07/17 00:55:31;;;;;;;2.00;1.80;;;24.00;70.40;;;;;;4953027;28;20260;-72
2023/07/17 00:57:57;;;;;;;1.90;1.80;;;24.00;70.30;;;;;;4971707;28;20189;-72
2023/07/17 01:00:24;;;;;;;1.95;1.67;;;23.90;70.20;;;;;;4973730;28;20636;-72
2023/07/17 01:02:55;;;;;;;2.00;1.80;;;23.90;70.20;;;;;;4959855;28;20225;-71
2023/07/17 01:05:21;;;;;;;2.08;1.67;;;23.90;70.20;;;;;;4966339;28;20228;-72
2023/07/17 01:07:47;;;;;;;1.88;1.77;;;23.90;70.20;;;;;;4975494;28;20245;-71
2023/07/17 01:10:13;;;;;;;1.90;1.80;;;23.90;71.00;;;;;;4958004;28;20190;-71
2023/07/17 01:12:38;;;;;;;1.92;1.83;;;23.90;70.20;;;;;;4966248;28;20566;-71
2023/07/17 01:15:07;;;;;;;2.08;1.88;;;24.00;70.30;;;;;;4957292;28;20276;-72
2023/07/17 01:17:33;;;;;;;2.72;1.70;;;23.90;70.20;;;;;;4958046;28;20184;-71
2023/07/17 01:19:59;;;;;;;1.73;1.63;;;23.90;70.20;;;;;;4973928;28;20186;-71
2023/07/17 01:22:41;;;;;;;2.38;1.42;;;23.90;71.00;;;;;;4974232;28;20185;-71
2023/07/17 01:25:08;;;;;;;2.13;1.90;;;23.90;70.20;;;;;;4973256;28;20213;-71
2023/07/17 01:27:34;;;;;;;2.53;1.80;;;23.90;70.20;;;;;;4957063;28;20222;-71
2023/07/17 01:30:00;;;;;;;2.92;1.92;;;23.90;70.20;;;;;;4955921;28;20190;-72
2023/07/17 01:32:25;;;;;;;2.38;2.00;;;23.90;70.20;;;;;;4957739;28;20178;-71
2023/07/17 01:34:51;;;;;;;2.65;1.70;;;23.90;70.20;;;;;;4957235;28;20194;-72
2023/07/17 01:37:17;;;;;;;2.05;1.88;;;23.90;70.20;;;;;;4965894;28;20190;-72
2023/07/17 01:39:43;;;;;;;1.88;1.77;;;23.90;70.20;;;;;;4973796;28;20197;-72
2023/07/17 01:42:08;;;;;;;1.75;1.65;;;23.90;70.20;;;;;;4971614;28;20222;-72
2023/07/17 01:44:34;;;;;;;1.90;1.67;;;23.90;70.20;;;;;;4964395;28;20218;-72
2023/07/17 01:47:00;;;;;;;2.10;1.80;;;23.90;70.20;;;;;;4957234;28;20284;-71
2023/07/17 01:49:25;;;;;;;1.65;1.55;;;23.90;70.20;;;;;;4963568;28;20346;-71
2023/07/17 01:51:51;;;;;;;1.80;1.70;;;23.90;70.20;;;;;;4973968;28;20656;-72
2023/07/17 01:54:17;;;;;;;1.80;1.70;;;23.90;70.20;;;;;;4965428;28;20687;-71
2023/07/17 01:56:43;;;;;;;2.38;1.95;;;23.90;70.20;;;;;;4972780;28;20216;-72
2023/07/17 01:59:10;;;;;;;2.22;2.00;;;23.90;70.20;;;;;;4973498;28;20276;-71
2023/07/17 02:01:36;;;;;;;1.90;1.80;;;23.90;70.20;;;;;;4973383;28;20285;-71
2023/07/17 02:04:01;;;;;;;1.83;1.73;;;23.90;70.20;;;;;;4973275;28;20220;-72
2023/07/17 02:06:28;;;;;;;1.75;1.65;;;23.90;70.30;;;;;;4953812;28;20186;-72
2023/07/17 02:08:55;;;;;;;1.80;1.70;;;23.90;70.30;;;;;;4953953;28;20680;-72
2023/07/17 02:11:26;;;;;;;1.83;1.73;;;23.90;70.20;;;;;;4973186;28;20683;-72
2023/07/17 02:13:53;;;;;;;2.10;1.90;;;23.90;70.20;;;;;;4957686;28;20307;-72
2023/07/17 02:16:19;;;;;;;1.92;1.70;;;23.90;70.30;;;;;;4972489;28;20186;-72
2023/07/17 02:18:45;;;;;;;1.75;1.65;;;23.90;70.20;;;;;;4973286;28;20190;-71
2023/07/17 02:21:11;;;;;;;2.72;2.00;;;23.80;70.10;;;;;;4956462;28;20693;-72
2023/07/17 02:23:37;;;;;;;1.80;1.67;;;23.90;70.20;;;;;;4953742;29;20236;-72
2023/07/17 02:26:05;;;;;;;2.55;1.90;;;23.90;70.30;;;;;;4954786;28;20549;-72
2023/07/17 02:28:31;;;;;;;1.73;1.60;;;23.90;70.30;;;;;;4956832;28;20205;-72
2023/07/17 02:30:56;;;;;;;2.00;1.70;;;23.90;70.30;;;;;;4972072;28;20189;-72
2023/07/17 02:33:22;;;;;;;1.73;1.63;;;23.90;70.30;;;;;;4956321;28;20201;-73
2023/07/17 02:35:48;;;;;;;1.77;1.67;;;23.90;70.30;;;;;;4956010;28;20208;-73
2023/07/17 02:38:14;;;;;;;1.88;1.77;;;23.90;70.20;;;;;;4972665;28;20201;-72
2023/07/17 02:40:40;;;;;;;1.85;1.75;;;23.90;70.20;;;;;;4972713;28;20196;-72
2023/07/17 02:43:07;;;;;;;2.05;1.60;;;23.80;70.20;;;;;;4972971;28;20205;-72
2023/07/17 02:45:33;;;;;;;1.85;1.75;;;23.80;70.20;;;;;;4955455;28;20194;-71
2023/07/17 02:47:59;;;;;;;1.90;1.80;;;23.80;70.20;;;;;;4956256;28;20222;-71
2023/07/17 02:50:25;;;;;;;1.60;1.50;;;23.90;70.30;;;;;;4972683;28;20249;-72
2023/07/17 02:52:50;;;;;;;1.70;1.60;;;23.80;70.20;;;;;;4957720;28;20297;-71
2023/07/17 02:55:16;;;;;;;1.65;1.55;;;23.80;70.20;;;;;;4971663;28;20186;-71
2023/07/17 02:57:42;;;;;;;2.35;1.80;;;23.90;70.30;;;;;;4972545;28;20200;-72
2023/07/17 03:00:12;;;;;;;1.80;1.60;;;23.80;70.20;;;;;;4954846;28;20233;-72
2023/07/17 03:02:41;;;;;;;1.90;1.60;;;23.90;70.30;;;;;;4963342;28;20244;-72
2023/07/17 03:05:11;;;;;;;1.90;1.70;;;23.90;70.30;;;;;;4962048;28;20191;-72
2023/07/17 03:07:40;;;;;;;1.80;1.70;;;23.90;70.30;;;;;;4963497;28;20254;-72
2023/07/17 03:10:07;;;;;;;2.08;1.90;;;23.80;70.10;;;;;;4954712;28;20198;-72
2023/07/17 03:12:34;;;;;;;2.00;1.90;;;23.80;70.20;;;;;;4972330;28;20189;-72
2023/07/17 03:15:04;;;;;;;1.95;1.85;;;23.80;70.20;;;;;;4953414;28;20331;-72
2023/07/17 03:17:31;;;;;;;2.03;1.63;;;23.80;70.20;;;;;;4952754;29;20656;-72
2023/07/17 03:19:58;;;;;;;1.75;1.65;;;23.80;70.20;;;;;;4953154;28;20253;-72
2023/07/17 03:22:26;;;;;;;1.52;1.42;;;23.80;70.20;;;;;;4971704;28;20186;-72
2023/07/17 03:24:53;;;;;;;1.95;1.85;;;23.80;70.20;;;;;;4956557;28;20679;-73
2023/07/17 03:27:19;;;;;;;1.70;1.60;;;23.80;70.10;;;;;;4964062;28;20178;-72
2023/07/17 03:29:48;;;;;;;1.92;1.83;;;23.80;70.20;;;;;;4955026;28;20213;-72
2023/07/17 03:32:14;;;;;;;2.28;1.70;;;23.80;70.20;;;;;;4971643;28;20190;-72
2023/07/17 03:34:41;;;;;;;1.85;1.70;;;23.80;70.10;;;;;;4951764;29;20221;-72
2023/07/17 03:37:07;;;;;;;1.88;1.60;;;23.80;70.20;;;;;;4970157;28;20220;-72
2023/07/17 03:39:33;;;;;;;2.40;2.05;;;23.80;70.10;;;;;;4971609;28;20217;-72
2023/07/17 03:41:59;;;;;;;1.85;1.75;;;23.80;70.10;;;;;;4955549;28;20194;-72
2023/07/17 03:44:25;;;;;;;1.83;1.73;;;23.80;70.20;;;;;;4963093;28;20209;-72
2023/07/17 03:46:50;;;;;;;1.60;1.50;;;23.80;70.10;;;;;;4971277;28;20193;-72
2023/07/17 03:49:18;;;;;;;2.30;2.10;;;23.80;70.20;;;;;;4963408;28;20209;-72
2023/07/17 03:51:45;;;;;;;2.03;1.73;;;23.80;70.20;;;;;;4955920;28;20197;-72
2023/07/17 03:54:11;;;;;;;1.92;1.75;;;23.80;70.10;;;;;;4971138;28;20205;-72
2023/07/17 03:56:39;;;;;;;1.90;1.75;;;23.80;70.10;;;;;;4970608;28;20185;-72
2023/07/17 03:59:06;;;;;;;2.30;2.10;;;23.80;70.10;;;;;;4968102;28;20273;-72
2023/07/17 04:01:32;;;;;;;2.30;1.90;;;23.80;70.10;;;;;;4971233;28;20201;-72
2023/07/17 04:03:58;;;;;;;1.77;1.58;;;23.80;70.10;;;;;;4970961;28;20232;-72
2023/07/17 04:06:24;;;;;;;1.70;1.60;;;23.80;70.10;;;;;;4954468;28;20196;-72
2023/07/17 04:08:50;;;;;;;2.00;1.80;;;23.80;70.10;;;;;;4971060;28;20221;-72
2023/07/17 04:11:17;;;;;;;1.95;1.75;;;23.80;70.10;;;;;;4971150;28;20184;-72
2023/07/17 04:13:47;;;;;;;2.15;1.98;;;23.80;70.10;;;;;;4963445;28;20253;-72
2023/07/17 04:16:15;;;;;;;1.88;1.77;;;23.80;70.10;;;;;;4969950;28;20209;-72
2023/07/17 04:18:41;;;;;;;2.22;2.08;;;23.80;70.10;;;;;;4962710;28;20281;-72
2023/07/17 04:21:07;;;;;;;2.15;2.03;;;23.80;70.10;;;;;;4953463;28;20247;-72
2023/07/17 04:23:32;;;;;;;1.90;1.58;;;23.80;70.10;;;;;;4960993;28;20300;-72
2023/07/17 04:26:01;;;;;;;1.70;1.60;;;23.80;70.10;;;;;;4966981;28;20205;-75
2023/07/17 04:28:27;;;;;;;1.67;1.58;;;23.80;70.00;;;;;;4953789;28;20209;-73
2023/07/17 04:30:54;;;;;;;2.00;1.63;;;23.80;70.10;;;;;;4956325;28;20194;-73
2023/07/17 04:33:20;;;;;;;1.77;1.67;;;23.80;70.10;;;;;;4970543;28;20208;-74
2023/07/17 04:35:46;;;;;;;2.00;1.80;;;23.80;70.10;;;;;;4953110;28;20182;-74
2023/07/17 04:38:12;;;;;;;2.10;1.92;;;23.80;70.00;;;;;;4969872;28;20686;-74
2023/07/17 04:40:39;;;;;;;2.00;1.90;;;23.80;70.00;;;;;;4951074;29;20197;-73
2023/07/17 04:43:05;;;;;;;1.98;1.85;;;23.80;70.10;;;;;;4968524;28;20214;-76
2023/07/17 04:45:33;;;;;;;2.13;1.92;;;23.80;70.90;;;;;;4960306;28;20202;-77
2023/07/17 04:48:03;;;;;;;2.10;1.90;;;23.80;70.00;;;;;;4969924;28;20225;-74
2023/07/17 04:50:29;;;;;;;2.13;1.92;;;23.80;70.10;;;;;;4953652;28;20614;-74
2023/07/17 04:52:56;;;;;;;2.10;1.90;;;23.80;70.00;;;;;;4953577;28;20651;-74
2023/07/17 04:55:23;;;;;;;2.00;1.80;;;23.80;70.00;;;;;;4969000;28;20269;-74
2023/07/17 04:57:49;;;;;;;1.85;1.75;;;23.80;70.00;;;;;;4963312;28;20206;-74
2023/07/17 05:00:19;;;;;;;1.80;1.70;;;23.80;70.10;;;;;;4962149;28;20189;-74
2023/07/17 05:02:45;;;;;;;1.80;1.70;;;23.80;70.00;;;;;;4953962;28;20248;-74
2023/07/17 05:05:12;;;;;;;2.25;2.05;;;23.80;70.00;;;;;;4969293;28;20190;-74
2023/07/17 05:07:41;;;;;;;2.03;1.90;;;23.80;70.00;;;;;;4951003;28;20281;-74
2023/07/17 05:10:08;;;;;;;2.20;2.00;;;23.80;69.80;;;;;;4968120;28;20302;-76
2023/07/17 05:12:35;;;;;;;1.92;1.77;;;23.80;69.80;;;;;;4952941;28;20190;-74
2023/07/17 05:15:00;;;;;;;2.17;1.92;;;23.80;69.80;;;;;;4953044;28;20197;-76
2023/07/17 05:17:29;;;;;;;1.80;1.70;;;23.80;69.80;;;;;;4962457;28;20548;-75
2023/07/17 05:19:55;;;;;;;2.10;1.90;;;23.80;69.80;;;;;;4963653;28;20198;-75
2023/07/17 05:22:20;;;;;;;1.90;1.80;;;23.80;69.80;;;;;;4959319;28;20194;-74
2023/07/17 05:24:48;;;;;;;1.85;1.75;;;23.80;69.80;;;;;;4965696;28;20237;-74
2023/07/17 05:27:14;;;;;;;2.28;2.08;;;23.80;69.80;;;;;;4972399;28;20730;-74
2023/07/17 05:29:40;;;;;;;1.80;1.70;;;23.80;69.80;;;;;;4955552;28;20209;-75
2023/07/17 05:32:06;;;;;;;2.10;2.00;;;23.80;69.80;;;;;;4954912;28;20197;-77
2023/07/17 05:34:32;;;;;;;2.13;1.90;;;23.80;69.80;;;;;;4960696;28;20206;-74
2023/07/17 05:36:58;;;;;;;1.48;1.38;;;23.80;69.70;;;;;;4972784;28;20213;-74
2023/07/17 05:39:27;;;;;;;2.00;1.80;;;23.80;69.70;;;;;;4971663;28;20221;-74
2023/07/17 05:41:53;;;;;;;1.88;1.77;;;23.80;69.60;;;;;;4956871;28;20193;-74
2023/07/17 05:44:19;;;;;;;2.20;2.00;;;23.80;69.60;;;;;;4957209;28;20212;-74
2023/07/17 05:46:45;;;;;;;1.85;1.63;;;23.80;69.60;;;;;;4973217;28;20197;-73
2023/07/17 05:49:11;;;;;;;1.92;1.83;;;23.80;69.50;;;;;;4963233;28;20222;-74
2023/07/17 05:51:37;;;;;;;2.10;1.90;;;23.80;69.50;;;;;;4973329;28;20197;-74
2023/07/17 05:54:03;;;;;;;1.98;1.88;;;23.80;69.40;;;;;;4956581;28;20657;-75
2023/07/17 05:56:28;;;;;;;1.95;1.85;;;23.80;69.40;;;;;;4956207;28;20178;-74
2023/07/17 05:58:54;;;;;;;2.30;1.70;;;23.80;69.40;;;;;;4972439;28;20220;-75
2023/07/17 06:01:20;;;;;;;2.00;1.90;;;23.80;69.30;;;;;;4972939;28;20224;-75
2023/07/17 06:03:46;;;;;;;2.30;1.95;;;23.90;69.40;;;;;;4956360;28;20233;-74
2023/07/17 06:06:12;;;;;;;2.20;1.80;;;23.80;69.30;;;;;;4963941;28;20236;-74
2023/07/17 06:08:37;;;;;;;2.08;1.98;;;23.90;69.40;;;;;;4972548;28;20276;-73
2023/07/17 06:11:03;;;;;;;2.00;1.90;;;23.90;69.40;;;;;;4972374;28;20205;-74
2023/07/17 06:13:29;;;;;;;1.80;1.70;;;23.80;69.20;;;;;;4963043;28;20206;-74
2023/07/17 06:15:55;;;;;;;2.10;1.83;;;23.90;69.30;;;;;;4968482;28;20190;-76
2023/07/17 06:18:20;;;;;;;1.98;1.77;;;23.90;69.40;;;;;;4973379;28;20280;-74
2023/07/17 06:20:46;;;;;;;1.92;1.83;;;23.90;69.20;;;;;;4972534;28;20205;-74
2023/07/17 06:23:12;;;;;;;2.65;2.08;;;23.80;69.20;;;;;;4972507;28;20210;-74
2023/07/17 06:25:38;;;;;;;2.10;1.77;;;23.90;69.40;;;;;;4952159;29;20199;-73
2023/07/17 06:28:05;;;;;;;2.05;1.85;;;23.80;69.10;;;;;;4972336;28;20309;-74
2023/07/17 06:30:34;;;;;;;2.53;1.95;;;23.90;69.20;;;;;;4954580;28;20194;-74
2023/07/17 06:32:59;;;;;;;2.00;1.80;;;23.90;69.10;;;;;;4972225;28;20729;-75
2023/07/17 06:35:26;;;;;;;2.20;2.00;;;23.90;69.10;;;;;;4972700;28;20190;-75
2023/07/17 06:37:52;;;;;;;2.13;1.92;;;23.90;69.10;;;;;;4953446;28;20627;-73
2023/07/17 06:40:17;;;;;;;1.80;1.70;;;23.80;69.00;;;;;;4971759;28;20193;-73
2023/07/17 06:42:43;;;;;;;3.30;1.70;;;23.90;69.10;;;;;;4971887;28;20247;-74
2023/07/17 06:45:09;;;;;;;2.13;1.83;;;23.90;69.20;;;;;;4955020;28;20194;-73
2023/07/17 06:47:35;;;;;;;2.13;1.90;;;23.90;69.10;;;;;;4972091;28;20201;-73
2023/07/17 06:50:01;;;;;;;2.13;1.80;;;23.90;69.00;;;;;;4967314;28;20201;-73
2023/07/17 06:52:27;;;;;;;2.03;1.92;;;23.90;68.90;;;;;;4971899;28;20182;-73
2023/07/17 06:54:53;;;;;;;2.25;1.98;;;23.90;68.90;;;;;;4970867;28;20204;-75
2023/07/17 06:57:20;;;;;;;2.53;2.25;;;23.90;68.90;;;;;;4972717;28;20173;-74
2023/07/17 06:59:46;;;;;;;2.63;2.20;;;23.90;68.90;;;;;;4971814;28;20197;-74
2023/07/17 07:02:13;;;;;;;2.30;2.10;;;23.90;68.90;;;;;;4955467;28;20213;-73
2023/07/17 07:04:39;;;;;;;1.90;1.80;;;23.90;68.80;;;;;;4955280;28;20316;-75
2023/07/17 07:07:05;;;;;;;2.38;2.08;;;23.90;68.90;;;;;;4971287;28;20280;-74
2023/07/17 07:09:31;;;;;;;2.90;2.42;;;23.90;68.80;;;;;;4971139;28;20233;-76
2023/07/17 07:11:56;;;;;;;2.25;2.03;;;23.90;68.80;;;;;;4969707;28;20189;-73
2023/07/17 07:14:22;;;;;;;2.50;2.30;;;23.90;69.00;;;;;;4969124;28;20212;-74
2023/07/17 07:16:48;;;;;;;2.03;1.83;;;23.90;69.00;;;;;;4963145;28;20204;-74
2023/07/17 07:19:14;;;;;;;2.08;1.98;;;23.90;68.80;;;;;;4970051;28;20198;-74
2023/07/17 07:21:40;;;;;;;3.15;2.08;;;23.90;68.90;;;;;;4965859;28;20197;-75
2023/07/17 07:24:06;;;;;;;3.03;2.53;;;23.90;68.70;;;;;;4964484;28;20220;-74
2023/07/17 07:26:32;;;;;;;3.05;2.13;;;23.90;68.80;;;;;;4967432;28;20197;-74
2023/07/17 07:28:58;;;;;;;2.25;1.92;;;23.90;68.80;;;;;;4945244;28;20721;-74
2023/07/17 07:31:24;;;;;;;2.03;1.92;;;23.90;68.70;;;;;;4970927;28;20190;-76
2023/07/17 07:33:49;;;;;;;2.58;2.20;;;23.90;68.70;;;;;;4968557;28;20321;-75
2023/07/17 07:36:15;;;;;;;2.53;2.33;;;23.90;68.70;;;;;;4951902;28;20193;-74
2023/07/17 07:38:41;;;;;;;2.72;2.45;;;23.90;68.70;;;;;;4970450;28;20252;-76
2023/07/17 07:41:06;;;;;;;2.65;2.15;;;23.90;68.70;;;;;;4953590;28;20201;-74
2023/07/17 07:43:32;;;;;;;3.35;2.15;;;23.90;68.70;;;;;;4967993;28;20214;-74
2023/07/17 07:45:58;;;;;;;3.83;2.40;;;23.90;68.60;;;;;;4969848;28;20194;-74
2023/07/17 07:48:24;;;;;;;2.10;1.83;;;24.00;68.70;;;;;;4971753;28;20392;-73
2023/07/17 07:50:49;;;;;;;2.47;2.28;;;24.00;68.70;;;;;;4971140;28;20290;-74
2023/07/17 07:53:15;;;;;;;3.08;2.10;;;23.90;68.60;;;;;;4970969;28;20679;-73
2023/07/17 07:55:41;;;;;;;2.35;2.10;;;24.00;68.60;;;;;;4953580;28;20198;-73
2023/07/17 07:58:07;;;;;;;2.58;2.38;;;23.90;68.50;;;;;;4970546;28;20189;-75
2023/07/17 08:00:32;;;;;;;2.25;2.00;;;23.90;68.60;;;;;;4970497;28;20193;-74
2023/07/17 08:02:58;;;;;;;2.40;2.17;;;23.90;68.50;;;;;;4970583;28;20241;-74
2023/07/17 08:05:24;;;;;;;2.25;2.05;;;23.90;68.50;;;;;;4960094;28;20190;-73
2023/07/17 08:07:50;;;;;;;2.70;2.38;;;24.00;68.60;;;;;;4950772;28;20197;-73
2023/07/17 08:10:16;;;;;;;2.30;1.90;;;24.00;68.60;;;;;;4954404;28;20186;-74
2023/07/17 08:12:42;;;;;;;2.70;2.47;;;23.90;68.40;;;;;;4962612;28;20201;-74
2023/07/17 08:15:08;;;;;;;2.70;2.28;;;24.00;68.50;;;;;;4969498;28;20193;-74
2023/07/17 08:17:35;;;;;;;2.38;2.17;;;24.00;68.60;;;;;;4970913;28;20208;-74
2023/07/17 08:20:00;;;;;;;3.53;2.60;;;24.00;68.60;;;;;;4970178;28;20194;-73
2023/07/17 08:22:26;;;;;;;2.75;2.45;;;24.00;68.50;;;;;;4970548;28;20193;-73
2023/07/17 08:24:52;;;;;;;3.03;2.30;;;24.00;68.50;;;;;;4969874;28;20193;-74
2023/07/17 08:27:18;;;;;;;3.08;2.78;;;24.10;68.60;;;;;;4970784;28;20213;-74
2023/07/17 08:29:43;;;;;;;2.72;2.45;;;24.00;68.50;;;;;;4971056;28;20216;-73
2023/07/17 08:32:11;;;;;;;2.60;2.40;;;24.00;68.40;;;;;;4970714;28;20189;-74
2023/07/17 08:34:36;;;;;;;3.08;2.65;;;24.10;68.60;;;;;;4952240;28;20206;-74
2023/07/17 08:37:02;;;;;;;3.13;2.40;;;24.00;68.50;;;;;;4953524;28;20383;-75
2023/07/17 08:39:28;;;;;;;3.53;2.55;;;24.00;68.40;;;;;;4970390;28;20185;-75
2023/07/17 08:41:54;;;;;;;2.08;1.90;;;24.00;68.40;;;;;;4970172;28;20193;-73
2023/07/17 08:44:21;;;;;;;2.90;2.30;;;24.00;68.20;;;;;;4950631;28;20244;-73
2023/07/17 08:46:50;;;;;;;2.50;2.30;;;24.10;68.40;;;;;;4966342;28;20272;-73
2023/07/17 08:49:18;;;;;;;2.40;2.20;;;24.10;68.30;;;;;;4969803;28;20217;-73
2023/07/17 08:51:49;;;;;;;3.13;2.83;;;24.10;68.10;;;;;;4970360;28;20273;-73
2023/07/17 08:54:16;;;;;;;2.80;2.60;;;24.10;68.20;;;;;;4970136;28;20209;-73
2023/07/17 08:56:44;;;;;;;4.13;2.75;;;24.10;68.20;;;;;;4969742;28;20197;-73
2023/07/17 08:59:10;;;;;;;2.88;2.60;;;24.10;68.00;;;;;;4969889;28;20191;-73
2023/07/17 09:01:37;;;;;;;2.95;2.70;;;24.10;68.00;;;;;;4972522;28;20189;-73
2023/07/17 09:04:07;;;;;;;3.05;2.75;;;24.10;67.70;;;;;;4973602;28;20268;-73
2023/07/17 09:06:33;;;;;;;2.45;2.28;;;24.10;68.00;;;;;;4971853;28;20205;-74
2023/07/17 09:09:00;;;;;;;3.55;2.65;;;24.10;67.90;;;;;;4970614;28;20213;-74
2023/07/17 09:11:26;;;;;;;3.35;2.80;;;24.10;67.90;;;;;;4970436;28;20201;-73
2023/07/17 09:13:52;;;;;;;3.05;2.63;;;24.10;67.90;;;;;;4969954;28;20210;-74
2023/07/17 09:16:23;;;;;;;2.70;2.50;;;24.10;67.80;;;;;;4970939;28;20296;-73
2023/07/17 09:18:52;;;;;;;2.55;2.30;;;24.10;67.70;;;;;;4972611;28;20208;-74
2023/07/17 09:21:21;;;;;;;3.40;2.75;;;24.10;67.70;;;;;;4971792;28;20197;-76
2023/07/17 09:23:54;;;;;;;3.58;2.35;;;24.10;67.50;;;;;;4970046;28;20209;-73
2023/07/17 09:26:22;;;;;;;3.22;2.72;;;24.10;67.30;;;;;;4953679;28;20198;-73
2023/07/17 09:28:56;;;;;;;2.88;2.58;;;24.10;67.40;;;;;;4967392;28;20227;-74
2023/07/17 09:31:29;;;;;;;3.45;3.00;;;24.10;67.50;;;;;;4955748;28;20185;-73
2023/07/17 09:34:01;;;;;;;3.78;2.90;;;24.10;67.50;;;;;;4968175;28;20202;-73
2023/07/17 09:36:27;;;;;;;3.30;2.60;;;24.10;67.40;;;;;;4966776;28;20193;-74
2023/07/17 09:38:56;;;;;;;3.30;3.00;;;24.10;67.30;;;;;;4971314;28;20276;-74
2023/07/17 09:41:27;;;;;;;5.03;3.25;;;24.10;67.00;;;;;;4973146;28;20194;-74
2023/07/17 09:44:05;;;;;;;3.53;2.75;;;24.10;67.10;;;;;;4963406;28;20222;-76
2023/07/17 09:46:40;;;;;;;2.85;2.65;;;24.10;66.90;;;;;;4965831;28;20313;-74
2023/07/17 09:49:07;;;;;;;3.60;3.30;;;24.10;67.00;;;;;;4973058;28;20292;-73
2023/07/17 09:51:33;;;;;;;4.63;3.38;;;24.10;66.90;;;;;;4973135;28;20178;-73
2023/07/17 09:53:59;;;;;;;3.17;2.88;;;24.10;67.20;;;;;;4956995;28;20348;-73
2023/07/17 09:56:30;;;;;;;3.70;3.08;;;24.10;67.00;;;;;;4972250;28;20189;-73
2023/07/17 09:59:17;;;;;;;3.40;3.08;;;24.10;67.00;;;;;;4956817;28;20630;-73
2023/07/17 10:01:47;;;;;;;4.75;3.78;;;24.10;66.80;;;;;;4960756;28;20232;-73
2023/07/17 10:04:40;;;;;;;3.60;3.30;;;24.10;66.80;;;;;;4973921;28;20217;-74
2023/07/17 10:07:08;;;;;;;4.45;3.72;;;24.10;66.90;;;;;;4956312;28;20248;-74
2023/07/17 10:09:37;;;;;;;5.78;4.80;;;24.10;66.90;;;;;;4972674;28;20349;-74
2023/07/17 10:12:04;;;;;;;5.90;5.07;;;24.10;66.80;;;;;;4955577;28;20194;-74
2023/07/17 10:14:31;;;;;;;4.65;4.22;;;24.10;66.80;;;;;;4971911;28;20675;-75
2023/07/17 10:16:56;;;;;;;6.53;4.88;;;24.10;66.90;;;;;;4972373;28;20186;-74
2023/07/17 10:19:42;;;;;;;7.05;5.18;;;24.10;67.00;;;;;;4971693;28;20259;-75
2023/07/17 10:22:13;;;;;;;7.93;5.50;;;24.10;66.80;;;;;;4972465;28;20647;-73
2023/07/17 10:24:40;;;;;;;8.48;6.72;;;24.10;66.80;;;;;;4956569;28;20213;-74
2023/07/17 10:27:07;;;;;;;10.23;8.75;;;24.10;66.50;;;;;;4974545;28;20217;-74
2023/07/17 10:29:42;;;;;;;7.22;6.15;;;24.10;66.70;;;;;;4955801;28;20210;-74
2023/07/17 10:32:14;;;;;;;8.70;6.10;;;24.10;66.40;;;;;;4971212;28;20200;-72
2023/07/17 10:34:52;;;;;;;7.90;6.28;;;24.10;66.50;;;;;;4971849;28;20242;-72
2023/07/17 10:37:32;;;;;;;12.23;8.85;;;24.10;66.60;;;;;;4973266;28;20277;-72
2023/07/17 10:40:25;;;;;;;8.65;7.15;;;24.10;66.40;;;;;;4955515;28;20252;-72
2023/07/17 10:42:51;;;;;;;9.20;7.70;;;24.00;66.20;;;;;;4972421;28;20213;-73
2023/07/17 10:45:18;;;;;;;9.00;7.97;;;24.00;66.30;;;;;;4954989;28;20244;-74
2023/07/17 10:47:49;;;;;;;11.07;9.05;;;24.00;66.40;;;;;;4972308;28;20235;-73
2023/07/17 10:50:18;;;;;;;9.90;7.68;;;24.00;66.10;;;;;;4971798;28;20266;-74
2023/07/17 10:52:44;;;;;;;8.85;7.82;;;24.00;66.20;;;;;;4971728;28;20190;-72
2023/07/17 10:55:10;;;;;;;9.32;7.45;;;24.10;66.30;;;;;;4970825;28;20193;-74
2023/07/17 10:57:37;;;;;;;8.57;7.68;;;24.10;66.30;;;;;;4956054;28;20190;-74
2023/07/17 11:00:04;;;;;;;7.97;7.18;;;24.10;66.40;;;;;;4971723;28;20193;-72
2023/07/17 11:02:30;;;;;;;9.57;7.28;;;24.10;65.90;;;;;;4955315;28;20204;-72
2023/07/17 11:04:58;;;;;;;9.23;7.72;;;24.10;66.00;;;;;;4972223;28;20190;-72
2023/07/17 11:07:30;;;;;;;9.48;7.78;;;24.10;66.00;;;;;;4948127;28;20233;-72
2023/07/17 11:09:56;;;;;;;8.85;7.68;;;24.00;66.10;;;;;;4968915;28;20316;-72
2023/07/17 11:12:25;;;;;;;9.18;7.65;;;24.10;66.00;;;;;;4971214;28;20261;-73
2023/07/17 11:14:52;;;;;;;9.32;7.43;;;24.10;66.00;;;;;;4971944;28;20182;-72
2023/07/17 11:17:18;;;;;;;9.20;7.35;;;24.10;65.80;;;;;;4971216;28;20221;-71
2023/07/17 11:19:44;;;;;;;8.48;7.30;;;24.10;66.10;;;;;;4955607;28;20221;-71
2023/07/17 11:22:11;;;;;;;10.75;8.20;;;24.00;65.60;;;;;;4972599;28;20574;-72
2023/07/17 11:24:37;;;;;;;7.90;6.80;;;24.10;65.90;;;;;;4971464;28;20217;-73
2023/07/17 11:27:04;;;;;;;8.50;7.18;;;24.00;65.80;;;;;;4971198;28;20201;-72
2023/07/17 11:29:30;;;;;;;8.80;7.13;;;24.10;65.90;;;;;;4971664;28;20688;-68
2023/07/17 11:32:01;;;;;;;9.98;7.43;;;24.10;65.90;;;;;;4954986;28;20244;-69
2023/07/17 11:34:27;;;;;;;8.77;7.10;;;24.10;65.70;;;;;;4970995;28;20292;-70
2023/07/17 11:36:53;;;;;;;8.32;7.15;;;24.10;65.60;;;;;;4955490;28;20233;-70
2023/07/17 11:39:22;;;;;;;8.63;7.72;;;24.00;65.70;;;;;;4971129;28;20762;-70
2023/07/17 11:41:52;;;;;;;7.88;7.07;;;24.00;65.90;;;;;;4971429;28;20715;-70
2023/07/17 11:44:26;;;;;;;8.85;6.78;;;24.10;66.10;;;;;;4971351;28;20707;-70
2023/07/17 11:47:03;;;;;;;8.13;6.25;;;24.00;66.00;;;;;;4954313;28;20207;-69
2023/07/17 11:49:30;;;;;;;8.73;6.68;;;24.10;66.10;;;;;;4971734;28;20205;-69
2023/07/17 11:51:57;;;;;;;7.28;6.43;;;24.00;65.80;;;;;;4952347;28;20194;-70
2023/07/17 11:54:38;;;;;;;9.45;6.93;;;24.00;65.80;;;;;;4968680;28;20225;-70
2023/07/17 11:57:04;;;;;;;8.00;6.35;;;24.00;65.50;;;;;;4970978;28;20228;-70
2023/07/17 11:59:30;;;;;;;8.50;6.70;;;24.00;65.60;;;;;;4954946;28;20189;-70
2023/07/17 12:01:56;;;;;;;8.55;6.80;;;24.00;65.60;;;;;;4971841;28;20204;-70
2023/07/17 12:04:28;;;;;;;8.30;7.28;;;24.10;65.70;;;;;;4970322;28;20588;-68
2023/07/17 12:06:55;;;;;;;7.32;6.40;;;24.00;65.50;;;;;;4970635;28;20213;-70
2023/07/17 12:09:22;;;;;;;9.80;6.35;;;24.10;65.90;;;;;;4970390;28;20252;-70
2023/07/17 12:11:48;;;;;;;6.97;6.07;;;24.10;65.80;;;;;;4969670;28;20188;-70
2023/07/17 12:14:16;;;;;;;7.65;6.47;;;24.00;65.80;;;;;;4970607;28;20228;-69
2023/07/17 12:16:44;;;;;;;6.80;6.05;;;24.00;66.00;;;;;;4969396;28;20194;-68
2023/07/17 12:19:10;;;;;;;6.82;6.18;;;24.00;65.80;;;;;;4969824;28;20197;-70
2023/07/17 12:21:37;;;;;;;8.55;6.47;;;24.10;66.00;;;;;;4970934;28;20189;-70
2023/07/17 12:24:03;;;;;;;10.13;6.80;;;24.10;66.00;;;;;;4962383;28;20217;-70
2023/07/17 12:26:29;;;;;;;6.57;5.88;;;24.00;65.80;;;;;;4953170;28;20197;-69
2023/07/17 12:28:54;;;;;;;6.22;5.60;;;24.10;65.90;;;;;;4970079;28;20221;-69
2023/07/17 12:31:20;;;;;;;7.20;6.50;;;24.10;66.00;;;;;;4969819;28;20228;-69
2023/07/17 12:33:47;;;;;;;7.45;5.80;;;24.10;65.90;;;;;;4970205;28;20300;-70
2023/07/17 12:36:13;;;;;;;6.35;5.32;;;24.10;65.70;;;;;;4952629;28;20193;-69
2023/07/17 12:38:39;;;;;;;6.60;5.85;;;24.10;65.80;;;;;;4959738;28;20193;-70
2023/07/17 12:41:04;;;;;;;6.32;5.72;;;24.10;65.80;;;;;;4969635;28;20190;-69
2023/07/17 12:43:31;;;;;;;9.10;6.28;;;24.10;65.60;;;;;;4953966;28;20213;-70
2023/07/17 12:45:57;;;;;;;6.10;5.50;;;24.10;65.70;;;;;;4952779;28;20280;-69